sensor_id;sensor_type;location;lat;lon;timestamp;P1;durP1;ratioP1;P2;durP2;ratioP2
7142;SDS011;3613;48.902;9.204;2022-09-17T00:00:30;3.73;;;1.53;;
7142;SDS011;3613;48.902;9.204;2022-09-17T00:02:56;2.23;;;1.60;;
7142;SDS011;3613;48.902;9.204;2022-09-17T00:05:24;1.87;;;1.30;;
7142;SDS011;3613;48.902;9.204;2022-09-17T00:07:50;1.70;;;1.37;;
7142;SDS011;3613;48.902;9.204;2022-09-17T00:10:17;1.30;;;1.20;;
7142;SDS011;3613;48.902;9.204;2022-09-17T00:12:44;3.57;;;1.50;;
7142;SDS011;3613;48.902;9.204;2022-09-17T00:15:11;3.67;;;1.67;;
7142;SDS011;3613;48.902;9.204;2022-09-17T00:17:40;3.27;;;1.27;;
7142;SDS011;3613;48.902;9.204;2022-09-17T00:20:08;2.63;;;1.10;;
7142;SDS011;3613;48.902;9.204;2022-09-17T00:22:35;1.40;;;1.30;;
7142;SDS011;3613;48.902;9.204;2022-09-17T00:25:02;2.60;;;1.30;;
7142;SDS011;3613;48.902;9.204;2022-09-17T00:27:32;3.53;;;1.57;;
7142;SDS011;3613;48.902;9.204;2022-09-17T00:29:58;3.47;;;1.40;;
7142;SDS011;3613;48.902;9.204;2022-09-17T00:32:26;1.63;;;1.53;;
7142;SDS011;3613;48.902;9.204;2022-09-17T00:34:51;1.67;;;1.40;;
7142;SDS011;3613;48.902;9.204;2022-09-17T00:37:19;2.63;;;1.60;;
7142;SDS011;3613;48.902;9.204;2022-09-17T00:39:47;1.10;;;1.10;;
7142;SDS011;3613;48.902;9.204;2022-09-17T00:42:15;3.33;;;1.33;;
7142;SDS011;3613;48.902;9.204;2022-09-17T00:47:28;2.97;;;1.27;;
7142;SDS011;3613;48.902;9.204;2022-09-17T00:50:05;3.43;;;1.30;;
7142;SDS011;3613;48.902;9.204;2022-09-17T00:52:39;2.13;;;1.30;;
7142;SDS011;3613;48.902;9.204;2022-09-17T00:55:12;1.60;;;1.40;;
7142;SDS011;3613;48.902;9.204;2022-09-17T00:57:43;1.43;;;1.23;;
7142;SDS011;3613;48.902;9.204;2022-09-17T01:00:13;3.00;;;1.57;;
7142;SDS011;3613;48.902;9.204;2022-09-17T01:02:40;2.00;;;1.33;;
7142;SDS011;3613;48.902;9.204;2022-09-17T01:05:07;2.63;;;1.57;;
7142;SDS011;3613;48.902;9.204;2022-09-17T01:18:38;2.30;;;1.53;;
7142;SDS011;3613;48.902;9.204;2022-09-17T01:21:29;3.47;;;2.20;;
7142;SDS011;3613;48.902;9.204;2022-09-17T01:34:37;2.57;;;1.80;;
7142;SDS011;3613;48.902;9.204;2022-09-17T01:37:19;2.40;;;1.53;;
7142;SDS011;3613;48.902;9.204;2022-09-17T01:45:29;3.40;;;1.73;;
7142;SDS011;3613;48.902;9.204;2022-09-17T01:48:19;2.97;;;2.00;;
7142;SDS011;3613;48.902;9.204;2022-09-17T01:53:23;3.83;;;1.77;;
7142;SDS011;3613;48.902;9.204;2022-09-17T01:55:55;2.27;;;1.50;;
7142;SDS011;3613;48.902;9.204;2022-09-17T01:58:26;3.37;;;1.70;;
7142;SDS011;3613;48.902;9.204;2022-09-17T02:00:57;3.70;;;1.70;;
7142;SDS011;3613;48.902;9.204;2022-09-17T02:03:28;1.70;;;1.60;;
7142;SDS011;3613;48.902;9.204;2022-09-17T02:06:12;2.63;;;1.93;;
7142;SDS011;3613;48.902;9.204;2022-09-17T02:08:50;2.40;;;1.73;;
7142;SDS011;3613;48.902;9.204;2022-09-17T02:11:17;3.57;;;1.90;;
7142;SDS011;3613;48.902;9.204;2022-09-17T02:16:16;2.27;;;1.80;;
7142;SDS011;3613;48.902;9.204;2022-09-17T02:19:26;3.50;;;2.13;;
7142;SDS011;3613;48.902;9.204;2022-09-17T02:24:36;2.07;;;1.73;;
7142;SDS011;3613;48.902;9.204;2022-09-17T02:27:29;4.93;;;1.90;;
7142;SDS011;3613;48.902;9.204;2022-09-17T02:30:07;5.23;;;2.00;;
7142;SDS011;3613;48.902;9.204;2022-09-17T02:32:33;3.40;;;1.60;;
7142;SDS011;3613;48.902;9.204;2022-09-17T02:34:59;3.00;;;1.50;;
7142;SDS011;3613;48.902;9.204;2022-09-17T02:37:24;1.77;;;1.57;;
7142;SDS011;3613;48.902;9.204;2022-09-17T02:39:51;3.90;;;1.60;;
7142;SDS011;3613;48.902;9.204;2022-09-17T02:42:40;2.23;;;1.57;;
7142;SDS011;3613;48.902;9.204;2022-09-17T02:56:48;3.90;;;1.70;;
7142;SDS011;3613;48.902;9.204;2022-09-17T02:59:24;3.80;;;1.70;;
7142;SDS011;3613;48.902;9.204;2022-09-17T03:01:54;3.40;;;1.70;;
7142;SDS011;3613;48.902;9.204;2022-09-17T03:04:26;2.00;;;1.43;;
7142;SDS011;3613;48.902;9.204;2022-09-17T03:06:53;4.07;;;1.87;;
7142;SDS011;3613;48.902;9.204;2022-09-17T03:09:19;4.47;;;2.03;;
7142;SDS011;3613;48.902;9.204;2022-09-17T03:11:45;5.33;;;2.20;;
7142;SDS011;3613;48.902;9.204;2022-09-17T03:14:11;2.17;;;1.70;;
7142;SDS011;3613;48.902;9.204;2022-09-17T03:16:36;5.37;;;1.80;;
7142;SDS011;3613;48.902;9.204;2022-09-17T03:19:02;2.23;;;1.80;;
7142;SDS011;3613;48.902;9.204;2022-09-17T03:21:28;3.23;;;1.97;;
7142;SDS011;3613;48.902;9.204;2022-09-17T03:23:53;2.73;;;1.60;;
7142;SDS011;3613;48.902;9.204;2022-09-17T03:26:19;4.83;;;1.90;;
7142;SDS011;3613;48.902;9.204;2022-09-17T03:28:45;4.63;;;2.00;;
7142;SDS011;3613;48.902;9.204;2022-09-17T03:31:15;2.47;;;2.10;;
7142;SDS011;3613;48.902;9.204;2022-09-17T03:33:42;3.50;;;1.90;;
7142;SDS011;3613;48.902;9.204;2022-09-17T03:36:08;4.47;;;2.10;;
7142;SDS011;3613;48.902;9.204;2022-09-17T03:38:36;4.63;;;2.00;;
7142;SDS011;3613;48.902;9.204;2022-09-17T03:41:03;2.97;;;1.60;;
7142;SDS011;3613;48.902;9.204;2022-09-17T03:43:33;5.23;;;2.30;;
7142;SDS011;3613;48.902;9.204;2022-09-17T03:45:59;2.93;;;1.90;;
7142;SDS011;3613;48.902;9.204;2022-09-17T03:48:27;4.07;;;2.00;;
7142;SDS011;3613;48.902;9.204;2022-09-17T03:50:54;6.73;;;2.03;;
7142;SDS011;3613;48.902;9.204;2022-09-17T03:53:20;5.67;;;2.23;;
7142;SDS011;3613;48.902;9.204;2022-09-17T03:55:46;4.03;;;2.03;;
7142;SDS011;3613;48.902;9.204;2022-09-17T03:58:14;5.80;;;2.00;;
7142;SDS011;3613;48.902;9.204;2022-09-17T04:00:40;5.73;;;2.10;;
7142;SDS011;3613;48.902;9.204;2022-09-17T04:03:09;3.07;;;1.93;;
7142;SDS011;3613;48.902;9.204;2022-09-17T04:05:35;4.07;;;2.07;;
7142;SDS011;3613;48.902;9.204;2022-09-17T04:08:00;5.23;;;2.50;;
7142;SDS011;3613;48.902;9.204;2022-09-17T04:10:28;3.27;;;2.47;;
7142;SDS011;3613;48.902;9.204;2022-09-17T04:12:54;5.10;;;2.00;;
7142;SDS011;3613;48.902;9.204;2022-09-17T04:15:20;2.30;;;1.90;;
7142;SDS011;3613;48.902;9.204;2022-09-17T04:17:45;3.87;;;2.23;;
7142;SDS011;3613;48.902;9.204;2022-09-17T04:20:15;6.63;;;2.57;;
7142;SDS011;3613;48.902;9.204;2022-09-17T04:22:41;2.20;;;2.00;;
7142;SDS011;3613;48.902;9.204;2022-09-17T04:25:09;3.00;;;1.90;;
7142;SDS011;3613;48.902;9.204;2022-09-17T04:27:35;2.83;;;1.83;;
7142;SDS011;3613;48.902;9.204;2022-09-17T04:30:01;7.20;;;2.13;;
7142;SDS011;3613;48.902;9.204;2022-09-17T04:32:26;4.57;;;2.00;;
7142;SDS011;3613;48.902;9.204;2022-09-17T04:34:52;3.23;;;2.10;;
7142;SDS011;3613;48.902;9.204;2022-09-17T04:37:17;4.00;;;2.03;;
7142;SDS011;3613;48.902;9.204;2022-09-17T04:39:43;4.50;;;1.90;;
7142;SDS011;3613;48.902;9.204;2022-09-17T04:42:09;4.73;;;2.00;;
7142;SDS011;3613;48.902;9.204;2022-09-17T04:44:34;2.53;;;1.90;;
7142;SDS011;3613;48.902;9.204;2022-09-17T04:47:00;4.93;;;2.03;;
7142;SDS011;3613;48.902;9.204;2022-09-17T04:49:26;3.27;;;2.17;;
7142;SDS011;3613;48.902;9.204;2022-09-17T04:51:54;4.77;;;2.10;;
7142;SDS011;3613;48.902;9.204;2022-09-17T04:54:20;6.00;;;2.40;;
7142;SDS011;3613;48.902;9.204;2022-09-17T04:56:46;3.70;;;2.57;;
7142;SDS011;3613;48.902;9.204;2022-09-17T04:59:14;6.30;;;2.40;;
7142;SDS011;3613;48.902;9.204;2022-09-17T05:01:40;4.00;;;2.20;;
7142;SDS011;3613;48.902;9.204;2022-09-17T05:04:07;3.20;;;2.27;;
7142;SDS011;3613;48.902;9.204;2022-09-17T05:06:33;6.63;;;2.53;;
7142;SDS011;3613;48.902;9.204;2022-09-17T05:08:58;3.97;;;2.23;;
7142;SDS011;3613;48.902;9.204;2022-09-17T05:11:24;3.63;;;2.40;;
7142;SDS011;3613;48.902;9.204;2022-09-17T05:13:49;5.50;;;2.60;;
7142;SDS011;3613;48.902;9.204;2022-09-17T05:16:15;4.27;;;2.30;;
7142;SDS011;3613;48.902;9.204;2022-09-17T05:18:43;4.43;;;2.00;;
7142;SDS011;3613;48.902;9.204;2022-09-17T05:21:09;6.33;;;2.30;;
7142;SDS011;3613;48.902;9.204;2022-09-17T05:23:37;3.63;;;2.47;;
7142;SDS011;3613;48.902;9.204;2022-09-17T05:26:02;10.50;;;2.73;;
7142;SDS011;3613;48.902;9.204;2022-09-17T05:28:30;5.77;;;2.37;;
7142;SDS011;3613;48.902;9.204;2022-09-17T05:30:59;3.20;;;2.20;;
7142;SDS011;3613;48.902;9.204;2022-09-17T05:33:25;9.30;;;2.77;;
7142;SDS011;3613;48.902;9.204;2022-09-17T05:35:51;5.43;;;2.60;;
7142;SDS011;3613;48.902;9.204;2022-09-17T05:38:19;3.90;;;2.50;;
7142;SDS011;3613;48.902;9.204;2022-09-17T05:40:45;6.23;;;2.23;;
7142;SDS011;3613;48.902;9.204;2022-09-17T05:43:13;5.70;;;2.67;;
7142;SDS011;3613;48.902;9.204;2022-09-17T05:45:39;4.07;;;2.33;;
7142;SDS011;3613;48.902;9.204;2022-09-17T05:48:06;2.70;;;2.00;;
7142;SDS011;3613;48.902;9.204;2022-09-17T05:50:35;5.37;;;2.20;;
7142;SDS011;3613;48.902;9.204;2022-09-17T05:53:04;3.23;;;1.90;;
7142;SDS011;3613;48.902;9.204;2022-09-17T05:55:35;6.30;;;2.30;;
7142;SDS011;3613;48.902;9.204;2022-09-17T05:58:07;4.50;;;2.50;;
7142;SDS011;3613;48.902;9.204;2022-09-17T06:00:37;4.03;;;2.23;;
7142;SDS011;3613;48.902;9.204;2022-09-17T06:03:02;3.90;;;2.20;;
7142;SDS011;3613;48.902;9.204;2022-09-17T06:05:28;7.37;;;2.23;;
7142;SDS011;3613;48.902;9.204;2022-09-17T06:07:54;3.63;;;2.40;;
7142;SDS011;3613;48.902;9.204;2022-09-17T06:10:21;3.30;;;2.03;;
7142;SDS011;3613;48.902;9.204;2022-09-17T06:12:49;8.40;;;2.40;;
7142;SDS011;3613;48.902;9.204;2022-09-17T06:15:20;4.67;;;2.80;;
7142;SDS011;3613;48.902;9.204;2022-09-17T06:17:46;3.90;;;2.23;;
7142;SDS011;3613;48.902;9.204;2022-09-17T06:20:11;5.40;;;2.70;;
7142;SDS011;3613;48.902;9.204;2022-09-17T06:22:37;6.80;;;2.77;;
7142;SDS011;3613;48.902;9.204;2022-09-17T06:25:02;3.60;;;2.17;;
7142;SDS011;3613;48.902;9.204;2022-09-17T06:27:32;3.10;;;2.23;;
7142;SDS011;3613;48.902;9.204;2022-09-17T06:29:58;4.37;;;2.77;;
7142;SDS011;3613;48.902;9.204;2022-09-17T06:32:27;3.97;;;2.27;;
7142;SDS011;3613;48.902;9.204;2022-09-17T06:34:55;3.53;;;2.10;;
7142;SDS011;3613;48.902;9.204;2022-09-17T06:37:28;3.77;;;2.10;;
7142;SDS011;3613;48.902;9.204;2022-09-17T06:39:55;6.03;;;2.30;;
7142;SDS011;3613;48.902;9.204;2022-09-17T06:42:24;4.07;;;2.40;;
7142;SDS011;3613;48.902;9.204;2022-09-17T06:44:50;4.47;;;2.20;;
7142;SDS011;3613;48.902;9.204;2022-09-17T06:47:16;3.30;;;2.40;;
7142;SDS011;3613;48.902;9.204;2022-09-17T06:49:42;5.13;;;2.33;;
7142;SDS011;3613;48.902;9.204;2022-09-17T06:52:10;3.63;;;2.03;;
7142;SDS011;3613;48.902;9.204;2022-09-17T06:54:36;4.53;;;2.20;;
7142;SDS011;3613;48.902;9.204;2022-09-17T06:57:01;4.57;;;2.50;;
7142;SDS011;3613;48.902;9.204;2022-09-17T06:59:29;3.33;;;2.30;;
7142;SDS011;3613;48.902;9.204;2022-09-17T07:01:55;5.10;;;2.63;;
7142;SDS011;3613;48.902;9.204;2022-09-17T07:04:21;4.60;;;2.70;;
7142;SDS011;3613;48.902;9.204;2022-09-17T07:06:46;3.63;;;2.20;;
7142;SDS011;3613;48.902;9.204;2022-09-17T07:09:14;3.17;;;2.30;;
7142;SDS011;3613;48.902;9.204;2022-09-17T07:11:40;5.23;;;2.70;;
7142;SDS011;3613;48.902;9.204;2022-09-17T07:14:05;5.07;;;2.33;;
7142;SDS011;3613;48.902;9.204;2022-09-17T07:16:33;4.03;;;3.23;;
7142;SDS011;3613;48.902;9.204;2022-09-17T07:19:03;6.37;;;2.90;;
7142;SDS011;3613;48.902;9.204;2022-09-17T07:21:29;6.83;;;2.90;;
7142;SDS011;3613;48.902;9.204;2022-09-17T07:23:59;4.00;;;3.10;;
7142;SDS011;3613;48.902;9.204;2022-09-17T07:26:25;6.50;;;3.43;;
7142;SDS011;3613;48.902;9.204;2022-09-17T07:28:51;9.17;;;3.67;;
7142;SDS011;3613;48.902;9.204;2022-09-17T07:31:16;6.00;;;3.50;;
7142;SDS011;3613;48.902;9.204;2022-09-17T07:33:42;6.33;;;4.03;;
7142;SDS011;3613;48.902;9.204;2022-09-17T07:36:11;8.93;;;3.97;;
7142;SDS011;3613;48.902;9.204;2022-09-17T07:38:39;5.30;;;3.50;;
7142;SDS011;3613;48.902;9.204;2022-09-17T07:41:06;7.27;;;3.40;;
7142;SDS011;3613;48.902;9.204;2022-09-17T07:43:38;5.30;;;3.47;;
7142;SDS011;3613;48.902;9.204;2022-09-17T07:46:05;6.80;;;3.30;;
7142;SDS011;3613;48.902;9.204;2022-09-17T07:48:32;6.40;;;3.60;;
7142;SDS011;3613;48.902;9.204;2022-09-17T07:51:00;7.30;;;4.00;;
7142;SDS011;3613;48.902;9.204;2022-09-17T07:53:26;5.00;;;3.57;;
7142;SDS011;3613;48.902;9.204;2022-09-17T07:55:55;6.40;;;4.23;;
7142;SDS011;3613;48.902;9.204;2022-09-17T07:58:22;4.33;;;3.33;;
7142;SDS011;3613;48.902;9.204;2022-09-17T08:00:52;8.23;;;3.43;;
7142;SDS011;3613;48.902;9.204;2022-09-17T08:03:17;5.80;;;3.00;;
7142;SDS011;3613;48.902;9.204;2022-09-17T08:05:43;7.03;;;3.47;;
7142;SDS011;3613;48.902;9.204;2022-09-17T08:08:09;4.67;;;3.00;;
7142;SDS011;3613;48.902;9.204;2022-09-17T08:10:39;8.47;;;3.33;;
7142;SDS011;3613;48.902;9.204;2022-09-17T08:13:05;5.60;;;2.97;;
7142;SDS011;3613;48.902;9.204;2022-09-17T08:15:31;4.80;;;2.90;;
7142;SDS011;3613;48.902;9.204;2022-09-17T08:17:58;5.10;;;3.00;;
7142;SDS011;3613;48.902;9.204;2022-09-17T08:20:24;4.60;;;3.30;;
7142;SDS011;3613;48.902;9.204;2022-09-17T08:22:56;6.30;;;3.10;;
7142;SDS011;3613;48.902;9.204;2022-09-17T08:25:23;4.27;;;3.20;;
7142;SDS011;3613;48.902;9.204;2022-09-17T08:27:51;6.57;;;3.27;;
7142;SDS011;3613;48.902;9.204;2022-09-17T08:30:18;4.00;;;3.13;;
7142;SDS011;3613;48.902;9.204;2022-09-17T08:32:44;3.60;;;2.73;;
7142;SDS011;3613;48.902;9.204;2022-09-17T08:35:10;7.37;;;3.23;;
7142;SDS011;3613;48.902;9.204;2022-09-17T08:37:35;10.97;;;3.87;;
7142;SDS011;3613;48.902;9.204;2022-09-17T08:40:03;4.77;;;2.60;;
7142;SDS011;3613;48.902;9.204;2022-09-17T08:45:00;8.30;;;2.67;;
7142;SDS011;3613;48.902;9.204;2022-09-17T08:47:39;3.53;;;2.60;;
7142;SDS011;3613;48.902;9.204;2022-09-17T08:50:25;4.83;;;2.40;;
7142;SDS011;3613;48.902;9.204;2022-09-17T08:56:06;6.10;;;2.23;;
7142;SDS011;3613;48.902;9.204;2022-09-17T08:58:56;5.20;;;2.33;;
7142;SDS011;3613;48.902;9.204;2022-09-17T09:04:01;6.90;;;2.57;;
7142;SDS011;3613;48.902;9.204;2022-09-17T09:06:41;7.10;;;2.83;;
7142;SDS011;3613;48.902;9.204;2022-09-17T09:09:46;4.80;;;2.50;;
7142;SDS011;3613;48.902;9.204;2022-09-17T09:12:24;8.87;;;2.63;;
7142;SDS011;3613;48.902;9.204;2022-09-17T09:14:59;8.77;;;2.60;;
7142;SDS011;3613;48.902;9.204;2022-09-17T09:17:35;3.97;;;2.70;;
7142;SDS011;3613;48.902;9.204;2022-09-17T09:20:10;6.43;;;2.80;;
7142;SDS011;3613;48.902;9.204;2022-09-17T09:22:49;6.27;;;3.07;;
7142;SDS011;3613;48.902;9.204;2022-09-17T09:33:24;8.30;;;2.77;;
7142;SDS011;3613;48.902;9.204;2022-09-17T09:35:54;6.43;;;2.23;;
7142;SDS011;3613;48.902;9.204;2022-09-17T09:38:42;5.90;;;2.40;;
7142;SDS011;3613;48.902;9.204;2022-09-17T09:51:56;10.53;;;2.80;;
7142;SDS011;3613;48.902;9.204;2022-09-17T09:54:31;5.80;;;2.30;;
7142;SDS011;3613;48.902;9.204;2022-09-17T10:02:49;5.20;;;2.40;;
7142;SDS011;3613;48.902;9.204;2022-09-17T10:05:24;4.63;;;2.30;;
7142;SDS011;3613;48.902;9.204;2022-09-17T10:07:49;5.20;;;2.30;;
7142;SDS011;3613;48.902;9.204;2022-09-17T10:10:15;5.77;;;2.90;;
7142;SDS011;3613;48.902;9.204;2022-09-17T10:12:41;5.30;;;2.47;;
7142;SDS011;3613;48.902;9.204;2022-09-17T10:15:27;7.00;;;2.60;;
7142;SDS011;3613;48.902;9.204;2022-09-17T10:20:51;6.43;;;2.30;;
7142;SDS011;3613;48.902;9.204;2022-09-17T10:23:22;5.23;;;2.60;;
7142;SDS011;3613;48.902;9.204;2022-09-17T10:25:49;5.73;;;2.80;;
7142;SDS011;3613;48.902;9.204;2022-09-17T10:28:24;5.03;;;2.20;;
7142;SDS011;3613;48.902;9.204;2022-09-17T10:31:15;3.77;;;2.10;;
7142;SDS011;3613;48.902;9.204;2022-09-17T10:33:51;5.47;;;2.03;;
7142;SDS011;3613;48.902;9.204;2022-09-17T10:36:17;3.87;;;1.70;;
7142;SDS011;3613;48.902;9.204;2022-09-17T10:39:45;4.53;;;2.10;;
7142;SDS011;3613;48.902;9.204;2022-09-17T10:44:25;4.07;;;1.70;;
7142;SDS011;3613;48.902;9.204;2022-09-17T10:46:53;5.00;;;1.80;;
7142;SDS011;3613;48.902;9.204;2022-09-17T10:52:07;6.60;;;2.83;;
7142;SDS011;3613;48.902;9.204;2022-09-17T11:00:24;5.30;;;2.30;;
7142;SDS011;3613;48.902;9.204;2022-09-17T11:11:17;5.60;;;1.70;;
7142;SDS011;3613;48.902;9.204;2022-09-17T11:19:18;3.30;;;1.70;;
7142;SDS011;3613;48.902;9.204;2022-09-17T11:22:04;4.33;;;2.00;;
7142;SDS011;3613;48.902;9.204;2022-09-17T11:27:32;4.73;;;1.87;;
7142;SDS011;3613;48.902;9.204;2022-09-17T11:30:16;4.80;;;2.47;;
7142;SDS011;3613;48.902;9.204;2022-09-17T11:33:06;3.47;;;1.80;;
7142;SDS011;3613;48.902;9.204;2022-09-17T11:35:39;4.27;;;2.23;;
7142;SDS011;3613;48.902;9.204;2022-09-17T11:40:54;3.77;;;2.03;;
7142;SDS011;3613;48.902;9.204;2022-09-17T11:43:36;5.50;;;2.60;;
7142;SDS011;3613;48.902;9.204;2022-09-17T11:46:07;3.97;;;1.80;;
7142;SDS011;3613;48.902;9.204;2022-09-17T11:48:44;3.67;;;1.77;;
7142;SDS011;3613;48.902;9.204;2022-09-17T11:51:33;4.13;;;1.90;;
7142;SDS011;3613;48.902;9.204;2022-09-17T11:54:24;3.57;;;1.97;;
7142;SDS011;3613;48.902;9.204;2022-09-17T11:57:09;4.60;;;1.80;;
7142;SDS011;3613;48.902;9.204;2022-09-17T11:59:53;3.27;;;2.10;;
7142;SDS011;3613;48.902;9.204;2022-09-17T12:03:00;4.07;;;2.20;;
7142;SDS011;3613;48.902;9.204;2022-09-17T12:05:24;3.20;;;1.90;;
7142;SDS011;3613;48.902;9.204;2022-09-17T12:08:06;3.67;;;1.97;;
7142;SDS011;3613;48.902;9.204;2022-09-17T12:13:42;4.20;;;1.67;;
7142;SDS011;3613;48.902;9.204;2022-09-17T12:21:48;4.63;;;2.23;;
7142;SDS011;3613;48.902;9.204;2022-09-17T12:26:58;5.10;;;2.00;;
7142;SDS011;3613;48.902;9.204;2022-09-17T12:49:02;4.57;;;1.50;;
7142;SDS011;3613;48.902;9.204;2022-09-17T12:59:55;1.50;;;1.10;;
7142;SDS011;3613;48.902;9.204;2022-09-17T13:22:08;1.10;;;1.00;;
7142;SDS011;3613;48.902;9.204;2022-09-17T13:24:44;3.10;;;1.33;;
7142;SDS011;3613;48.902;9.204;2022-09-17T13:27:20;2.03;;;1.10;;
7142;SDS011;3613;48.902;9.204;2022-09-17T13:40:39;3.57;;;1.30;;
7142;SDS011;3613;48.902;9.204;2022-09-17T13:48:33;2.73;;;1.40;;
7142;SDS011;3613;48.902;9.204;2022-09-17T13:53:52;3.87;;;1.53;;
7142;SDS011;3613;48.902;9.204;2022-09-17T13:59:03;2.50;;;1.70;;
7142;SDS011;3613;48.902;9.204;2022-09-17T14:01:58;3.53;;;1.47;;
7142;SDS011;3613;48.902;9.204;2022-09-17T14:04:47;1.67;;;1.30;;
7142;SDS011;3613;48.902;9.204;2022-09-17T14:18:00;5.43;;;1.93;;
7142;SDS011;3613;48.902;9.204;2022-09-17T14:20:46;3.70;;;1.40;;
7142;SDS011;3613;48.902;9.204;2022-09-17T14:23:13;2.73;;;1.23;;
7142;SDS011;3613;48.902;9.204;2022-09-17T14:25:39;1.70;;;1.47;;
7142;SDS011;3613;48.902;9.204;2022-09-17T14:28:17;6.47;;;1.47;;
7142;SDS011;3613;48.902;9.204;2022-09-17T14:30:52;2.50;;;1.30;;
7142;SDS011;3613;48.902;9.204;2022-09-17T14:33:19;4.73;;;1.40;;
7142;SDS011;3613;48.902;9.204;2022-09-17T14:35:51;2.13;;;1.47;;
7142;SDS011;3613;48.902;9.204;2022-09-17T14:38:31;4.30;;;1.60;;
7142;SDS011;3613;48.902;9.204;2022-09-17T14:43:42;2.33;;;1.50;;
7142;SDS011;3613;48.902;9.204;2022-09-17T14:46:28;5.23;;;1.60;;
7142;SDS011;3613;48.902;9.204;2022-09-17T14:49:23;4.97;;;1.97;;
7142;SDS011;3613;48.902;9.204;2022-09-17T14:51:50;3.27;;;1.57;;
7142;SDS011;3613;48.902;9.204;2022-09-17T15:08:15;3.53;;;1.77;;
7142;SDS011;3613;48.902;9.204;2022-09-17T15:13:27;3.53;;;1.87;;
7142;SDS011;3613;48.902;9.204;2022-09-17T15:18:53;3.60;;;1.90;;
7142;SDS011;3613;48.902;9.204;2022-09-17T15:21:34;2.37;;;1.77;;
7142;SDS011;3613;48.902;9.204;2022-09-17T15:26:52;5.00;;;1.83;;
7142;SDS011;3613;48.902;9.204;2022-09-17T15:29:22;2.77;;;1.50;;
7142;SDS011;3613;48.902;9.204;2022-09-17T15:31:49;3.83;;;2.03;;
7142;SDS011;3613;48.902;9.204;2022-09-17T15:34:15;3.57;;;1.67;;
7142;SDS011;3613;48.902;9.204;2022-09-17T15:36:45;5.40;;;2.00;;
7142;SDS011;3613;48.902;9.204;2022-09-17T15:39:46;3.90;;;2.10;;
7142;SDS011;3613;48.902;9.204;2022-09-17T15:42:21;2.00;;;1.50;;
7142;SDS011;3613;48.902;9.204;2022-09-17T15:45:14;4.13;;;2.13;;
7142;SDS011;3613;48.902;9.204;2022-09-17T15:50:26;4.60;;;2.30;;
7142;SDS011;3613;48.902;9.204;2022-09-17T15:58:01;3.87;;;1.80;;
7142;SDS011;3613;48.902;9.204;2022-09-17T16:00:29;2.97;;;1.80;;
7142;SDS011;3613;48.902;9.204;2022-09-17T16:02:55;4.43;;;2.20;;
7142;SDS011;3613;48.902;9.204;2022-09-17T16:07:51;3.67;;;2.33;;
7142;SDS011;3613;48.902;9.204;2022-09-17T16:10:19;5.90;;;2.10;;
7142;SDS011;3613;48.902;9.204;2022-09-17T16:12:47;2.60;;;1.80;;
7142;SDS011;3613;48.902;9.204;2022-09-17T16:15:13;4.07;;;1.87;;
7142;SDS011;3613;48.902;9.204;2022-09-17T16:17:42;3.60;;;1.83;;
7142;SDS011;3613;48.902;9.204;2022-09-17T16:20:13;3.57;;;1.80;;
7142;SDS011;3613;48.902;9.204;2022-09-17T16:22:39;3.80;;;1.73;;
7142;SDS011;3613;48.902;9.204;2022-09-17T16:25:08;3.87;;;1.87;;
7142;SDS011;3613;48.902;9.204;2022-09-17T16:27:38;3.27;;;1.60;;
7142;SDS011;3613;48.902;9.204;2022-09-17T16:30:14;5.10;;;2.37;;
7142;SDS011;3613;48.902;9.204;2022-09-17T16:32:41;3.37;;;1.87;;
7142;SDS011;3613;48.902;9.204;2022-09-17T16:35:11;4.27;;;1.63;;
7142;SDS011;3613;48.902;9.204;2022-09-17T16:37:46;5.30;;;2.10;;
7142;SDS011;3613;48.902;9.204;2022-09-17T16:40:17;2.50;;;1.60;;
7142;SDS011;3613;48.902;9.204;2022-09-17T16:42:45;2.57;;;2.00;;
7142;SDS011;3613;48.902;9.204;2022-09-17T16:45:14;2.73;;;1.60;;
7142;SDS011;3613;48.902;9.204;2022-09-17T16:47:40;4.17;;;1.90;;
7142;SDS011;3613;48.902;9.204;2022-09-17T16:50:07;4.23;;;1.70;;
7142;SDS011;3613;48.902;9.204;2022-09-17T16:52:35;3.57;;;1.80;;
7142;SDS011;3613;48.902;9.204;2022-09-17T16:55:03;3.87;;;1.90;;
7142;SDS011;3613;48.902;9.204;2022-09-17T16:57:30;3.97;;;1.77;;
7142;SDS011;3613;48.902;9.204;2022-09-17T16:59:58;2.70;;;2.10;;
7142;SDS011;3613;48.902;9.204;2022-09-17T17:02:24;2.43;;;1.67;;
7142;SDS011;3613;48.902;9.204;2022-09-17T17:04:53;4.17;;;1.87;;
7142;SDS011;3613;48.902;9.204;2022-09-17T17:07:21;3.47;;;2.20;;
7142;SDS011;3613;48.902;9.204;2022-09-17T17:09:49;8.40;;;2.93;;
7142;SDS011;3613;48.902;9.204;2022-09-17T17:12:17;2.77;;;1.90;;
7142;SDS011;3613;48.902;9.204;2022-09-17T17:14:45;4.63;;;2.20;;
7142;SDS011;3613;48.902;9.204;2022-09-17T17:17:14;5.43;;;1.80;;
7142;SDS011;3613;48.902;9.204;2022-09-17T17:19:41;3.20;;;1.83;;
7142;SDS011;3613;48.902;9.204;2022-09-17T17:22:10;6.00;;;3.13;;
7142;SDS011;3613;48.902;9.204;2022-09-17T17:24:36;3.07;;;2.13;;
7142;SDS011;3613;48.902;9.204;2022-09-17T17:27:02;3.87;;;1.90;;
7142;SDS011;3613;48.902;9.204;2022-09-17T17:29:30;3.97;;;2.00;;
7142;SDS011;3613;48.902;9.204;2022-09-17T17:31:56;2.63;;;2.27;;
7142;SDS011;3613;48.902;9.204;2022-09-17T17:34:21;4.50;;;2.20;;
7142;SDS011;3613;48.902;9.204;2022-09-17T17:36:49;7.23;;;2.20;;
7142;SDS011;3613;48.902;9.204;2022-09-17T17:39:15;4.10;;;2.77;;
7142;SDS011;3613;48.902;9.204;2022-09-17T17:41:41;6.27;;;2.83;;
7142;SDS011;3613;48.902;9.204;2022-09-17T17:44:07;5.63;;;3.13;;
7142;SDS011;3613;48.902;9.204;2022-09-17T17:46:36;7.93;;;2.77;;
7142;SDS011;3613;48.902;9.204;2022-09-17T17:49:03;3.57;;;2.70;;
7142;SDS011;3613;48.902;9.204;2022-09-17T17:51:29;4.73;;;2.87;;
7142;SDS011;3613;48.902;9.204;2022-09-17T17:53:57;8.47;;;3.43;;
7142;SDS011;3613;48.902;9.204;2022-09-17T17:56:25;5.07;;;3.17;;
7142;SDS011;3613;48.902;9.204;2022-09-17T17:58:54;4.50;;;2.90;;
7142;SDS011;3613;48.902;9.204;2022-09-17T18:01:23;5.57;;;3.20;;
7142;SDS011;3613;48.902;9.204;2022-09-17T18:03:54;7.97;;;3.50;;
7142;SDS011;3613;48.902;9.204;2022-09-17T18:06:23;8.73;;;3.63;;
7142;SDS011;3613;48.902;9.204;2022-09-17T18:08:52;5.27;;;2.60;;
7142;SDS011;3613;48.902;9.204;2022-09-17T18:11:19;8.30;;;3.30;;
7142;SDS011;3613;48.902;9.204;2022-09-17T18:13:45;9.70;;;2.87;;
7142;SDS011;3613;48.902;9.204;2022-09-17T18:16:14;5.87;;;2.40;;
7142;SDS011;3613;48.902;9.204;2022-09-17T18:18:41;5.00;;;3.13;;
7142;SDS011;3613;48.902;9.204;2022-09-17T18:21:08;5.67;;;2.60;;
7142;SDS011;3613;48.902;9.204;2022-09-17T18:23:35;5.63;;;3.10;;
7142;SDS011;3613;48.902;9.204;2022-09-17T18:26:03;7.10;;;3.17;;
7142;SDS011;3613;48.902;9.204;2022-09-17T18:28:30;6.53;;;2.80;;
7142;SDS011;3613;48.902;9.204;2022-09-17T18:33:35;6.63;;;2.80;;
7142;SDS011;3613;48.902;9.204;2022-09-17T18:36:02;3.77;;;2.70;;
7142;SDS011;3613;48.902;9.204;2022-09-17T18:38:31;5.83;;;3.10;;
7142;SDS011;3613;48.902;9.204;2022-09-17T18:41:03;4.83;;;2.73;;
7142;SDS011;3613;48.902;9.204;2022-09-17T18:43:29;6.60;;;3.07;;
7142;SDS011;3613;48.902;9.204;2022-09-17T18:45:57;8.80;;;3.27;;
7142;SDS011;3613;48.902;9.204;2022-09-17T18:48:24;4.77;;;2.97;;
7142;SDS011;3613;48.902;9.204;2022-09-17T18:50:57;5.13;;;2.93;;
7142;SDS011;3613;48.902;9.204;2022-09-17T18:53:30;5.60;;;3.07;;
7142;SDS011;3613;48.902;9.204;2022-09-17T18:55:59;4.77;;;2.77;;
7142;SDS011;3613;48.902;9.204;2022-09-17T18:58:34;7.20;;;2.67;;
7142;SDS011;3613;48.902;9.204;2022-09-17T19:01:03;8.33;;;2.80;;
7142;SDS011;3613;48.902;9.204;2022-09-17T19:03:32;4.97;;;2.97;;
7142;SDS011;3613;48.902;9.204;2022-09-17T19:05:59;5.73;;;2.97;;
7142;SDS011;3613;48.902;9.204;2022-09-17T19:08:28;5.50;;;2.93;;
7142;SDS011;3613;48.902;9.204;2022-09-17T19:10:54;3.70;;;3.00;;
7142;SDS011;3613;48.902;9.204;2022-09-17T19:13:20;5.50;;;3.40;;
7142;SDS011;3613;48.902;9.204;2022-09-17T19:15:45;5.10;;;3.00;;
7142;SDS011;3613;48.902;9.204;2022-09-17T19:18:13;4.83;;;2.77;;
7142;SDS011;3613;48.902;9.204;2022-09-17T19:20:39;4.97;;;2.80;;
7142;SDS011;3613;48.902;9.204;2022-09-17T19:23:05;5.17;;;3.27;;
7142;SDS011;3613;48.902;9.204;2022-09-17T19:25:31;8.63;;;3.67;;
7142;SDS011;3613;48.902;9.204;2022-09-17T19:28:02;5.73;;;2.60;;
7142;SDS011;3613;48.902;9.204;2022-09-17T19:30:31;6.80;;;2.80;;
7142;SDS011;3613;48.902;9.204;2022-09-17T19:32:57;5.63;;;2.67;;
7142;SDS011;3613;48.902;9.204;2022-09-17T19:35:27;3.47;;;2.30;;
7142;SDS011;3613;48.902;9.204;2022-09-17T19:37:56;4.70;;;2.70;;